Spences Bridge, Canada
Current Conditions -  °F | °C
As of 7:25 AM on Thursday 18 Dec 2014 (Local Time) from CWLY Reporting Station
Light Rain Light Rain  
Wind Chill: 32°   Ceiling: 1600
Heat Index: 32°   Visibility: 8mi
Dew Point: 32°   Wind: 0mph
Humidity: 100%   Direction: NA
Pressure: 29.93"   Gusts: NA
Location:  50.42°N, 121.35°W
Report Text: CWLY 181525Z AUTO 00000KT 8SM -RA OVC016 00/M00 A2993 RMK SLP145
Loading
Personal Weather Stations






























Interactive Weather Map New forecast layout! Learn more

10-Day Weather Forecast

Advertisements
Track Severe Weather on mobile